Time;durP1;ratioP1;P1;durP2;ratioP2;P2;SDS_P1;SDS_P2;PMS_P1;PMS_P2;Temp;Humidity;BMP_temperature;BMP_pressure;BME280_temperature;BME280_humidity;BME280_pressure;Samples;Min_cycle;Max_cycle;Signal;HPM_P1;HPM_P2
2021/09/20 00:01:08;;;;;;;2.33;1.50;;;;;;;27.69;34.95;96588.16;5008055;28;20028;-31
2021/09/20 00:03:34;;;;;;;3.45;1.98;;;;;;;27.70;34.84;96589.03;5012437;28;20026;-32
2021/09/20 00:05:59;;;;;;;2.05;1.88;;;;;;;27.69;34.75;96589.97;5010364;28;20026;-29
2021/09/20 00:08:24;;;;;;;1.90;1.70;;;;;;;27.68;34.71;96591.75;5011946;28;20969;-30
2021/09/20 00:10:50;;;;;;;1.92;1.73;;;;;;;27.69;34.94;96592.63;5010424;28;20029;-29
2021/09/20 00:13:16;;;;;;;1.80;1.58;;;;;;;27.69;34.84;96597.88;5013519;28;20033;-30
2021/09/20 00:15:41;;;;;;;1.83;1.58;;;;;;;27.68;34.82;96594.38;5011573;28;20526;-28
2021/09/20 00:18:07;;;;;;;4.85;1.73;;;;;;;27.69;35.10;96588.16;5007801;28;20048;-31
2021/09/20 00:20:32;;;;;;;1.80;1.70;;;;;;;27.69;34.86;96595.25;5009479;28;20029;-28
2021/09/20 00:22:58;;;;;;;3.65;1.80;;;;;;;27.68;34.94;96593.56;5010737;28;20032;-31
2021/09/20 00:25:23;;;;;;;2.00;1.65;;;;;;;27.68;35.08;96594.38;5008323;28;20040;-29
2021/09/20 00:27:48;;;;;;;2.03;1.60;;;;;;;27.68;34.91;96589.13;5008922;28;20045;-31
2021/09/20 00:30:14;;;;;;;2.22;1.83;;;;;;;27.68;34.84;96598.81;5009728;28;20029;-29
2021/09/20 00:32:39;;;;;;;1.88;1.67;;;;;;;27.67;34.90;96597.97;5006292;28;20033;-28
2021/09/20 00:35:06;;;;;;;1.80;1.70;;;;;;;27.67;34.81;96597.13;5028004;28;20086;-28
2021/09/20 00:37:34;;;;;;;2.92;1.70;;;;;;;27.67;34.91;96595.34;5024927;28;20112;-28
2021/09/20 00:39:59;;;;;;;1.85;1.75;;;;;;;27.67;34.87;96602.38;5005648;28;20441;-32
2021/09/20 00:42:25;;;;;;;1.73;1.60;;;;;;;27.67;34.82;96600.59;5006574;28;20056;-30
2021/09/20 00:44:53;;;;;;;5.47;1.70;;;;;;;27.65;34.94;96600.69;5013645;28;20025;-28
2021/09/20 00:47:19;;;;;;;2.30;1.63;;;;;;;27.65;34.97;96598.06;5011145;28;20064;-27
2021/09/20 00:49:44;;;;;;;2.53;1.90;;;;;;;27.65;34.91;96599.88;5011444;28;20597;-30
2021/09/20 00:52:09;;;;;;;3.08;1.60;;;;;;;27.67;34.90;96607.66;5009653;28;20029;-32
2021/09/20 00:54:35;;;;;;;3.35;1.63;;;;;;;27.67;34.94;96607.66;5009553;28;20029;-27
2021/09/20 00:57:01;;;;;;;3.28;1.58;;;;;;;27.67;34.91;96602.38;5010455;28;20784;-30
2021/09/20 00:59:26;;;;;;;2.38;1.60;;;;;;;27.67;34.91;96597.13;5007428;28;20087;-28
2021/09/20 01:01:53;;;;;;;3.55;1.63;;;;;;;27.67;35.01;96605.88;5005823;28;20032;-28
2021/09/20 01:04:18;;;;;;;2.05;1.67;;;;;;;27.68;35.02;96606.72;5013634;28;20029;-28
2021/09/20 01:06:44;;;;;;;1.83;1.55;;;;;;;27.67;35.08;96603.25;5009145;28;20700;-34
2021/09/20 01:09:09;;;;;;;2.72;1.63;;;;;;;27.68;34.92;96604.09;5019087;28;20137;-30
2021/09/20 01:11:34;;;;;;;2.15;1.55;;;;;;;27.68;35.02;96614.63;5005202;28;20567;-29
2021/09/20 01:14:00;;;;;;;4.13;1.75;;;;;;;27.68;35.03;96609.34;5012642;28;20032;-29
2021/09/20 01:16:25;;;;;;;1.90;1.60;;;;;;;27.67;35.01;96612.91;5015158;28;20051;-30
2021/09/20 01:18:51;;;;;;;2.60;1.60;;;;;;;27.68;34.96;96619.88;5009264;28;20025;-29
2021/09/20 01:21:16;;;;;;;2.53;1.90;;;;;;;27.68;34.94;96614.63;5013114;28;21039;-26
2021/09/20 01:23:43;;;;;;;3.22;1.60;;;;;;;27.65;35.02;96611.22;5011704;28;20034;-29
2021/09/20 01:26:09;;;;;;;1.92;1.67;;;;;;;27.65;34.92;96616.50;5008724;28;20069;-29
2021/09/20 01:28:34;;;;;;;1.83;1.33;;;;;;;27.64;34.84;96617.44;5010438;28;20138;-30
2021/09/20 01:30:59;;;;;;;1.95;1.75;;;;;;;27.64;35.19;96614.81;5013328;28;20026;-30
2021/09/20 01:33:25;;;;;;;1.83;1.70;;;;;;;27.64;34.97;96613.94;5008155;28;20039;-28
2021/09/20 01:35:50;;;;;;;1.95;1.80;;;;;;;27.65;35.00;96613.84;5011524;28;20033;-29
2021/09/20 01:38:16;;;;;;;1.60;1.50;;;;;;;27.65;35.21;96605.97;5007254;28;20040;-32
2021/09/20 01:40:41;;;;;;;1.90;1.63;;;;;;;27.64;34.92;96604.28;5010781;28;20037;-32
2021/09/20 01:43:06;;;;;;;2.38;1.67;;;;;;;27.64;35.09;96606.91;5007379;28;20492;-27
2021/09/20 01:45:32;;;;;;;1.70;1.60;;;;;;;27.65;35.10;96605.13;5007491;28;20034;-31
2021/09/20 01:47:57;;;;;;;1.83;1.67;;;;;;;27.64;34.98;96606.91;5004924;28;20041;-27
2021/09/20 01:50:23;;;;;;;1.92;1.52;;;;;;;27.64;35.09;96609.53;5013546;28;20025;-28
2021/09/20 01:52:48;;;;;;;2.45;1.65;;;;;;;27.64;35.01;96604.28;5010946;28;20036;-30
2021/09/20 01:55:14;;;;;;;2.63;1.80;;;;;;;27.64;34.99;96606.06;5005058;28;20040;-27
2021/09/20 01:57:40;;;;;;;4.82;1.90;;;;;;;27.64;35.11;96609.53;5006432;28;20037;-29
2021/09/20 02:00:07;;;;;;;3.72;1.80;;;;;;;27.64;34.87;96609.53;5008030;28;20031;-26
2021/09/20 02:02:32;;;;;;;1.67;1.42;;;;;;;27.64;34.95;96609.53;5011687;28;20029;-28
2021/09/20 02:04:58;;;;;;;2.17;1.70;;;;;;;27.64;35.06;96613.94;5015162;28;20087;-26
2021/09/20 02:07:23;;;;;;;2.58;1.90;;;;;;;27.62;35.05;96614.03;5014910;28;20056;-29
2021/09/20 02:09:48;;;;;;;1.73;1.60;;;;;;;27.62;34.97;96614.03;5010071;28;20110;-29
2021/09/20 02:12:14;;;;;;;2.67;1.65;;;;;;;27.62;34.86;96615.84;5013659;28;20821;-27
2021/09/20 02:14:39;;;;;;;1.48;1.38;;;;;;;27.61;34.91;96617.63;5018066;28;20033;-29
2021/09/20 02:17:04;;;;;;;2.13;1.60;;;;;;;27.61;34.97;96617.63;5010809;28;20033;-29
2021/09/20 02:19:30;;;;;;;1.88;1.60;;;;;;;27.60;34.91;96623.81;5016362;28;20045;-28
2021/09/20 02:21:55;;;;;;;1.65;1.55;;;;;;;27.61;35.01;96616.81;5010115;28;20758;-31
2021/09/20 02:24:21;;;;;;;2.65;1.90;;;;;;;27.60;35.01;96613.28;5007426;28;20033;-26
2021/09/20 02:26:46;;;;;;;2.78;2.00;;;;;;;27.60;34.98;96613.28;5013006;28;20033;-29
2021/09/20 02:29:11;;;;;;;1.92;1.70;;;;;;;27.58;35.05;96617.78;5010961;28;20040;-29
2021/09/20 02:31:37;;;;;;;1.60;1.50;;;;;;;27.59;35.01;96614.22;5007474;28;20537;-32
2021/09/20 02:34:03;;;;;;;2.00;1.80;;;;;;;27.58;34.93;96615.16;5020595;28;20033;-28
2021/09/20 02:36:28;;;;;;;2.35;1.63;;;;;;;27.58;34.91;96620.41;5012603;28;20506;-29
2021/09/20 02:38:53;;;;;;;2.97;1.52;;;;;;;27.59;34.99;96619.50;5006033;28;20022;-28
2021/09/20 02:41:19;;;;;;;1.90;1.80;;;;;;;27.58;35.00;96615.16;5010005;28;20590;-29
2021/09/20 02:43:44;;;;;;;2.20;1.90;;;;;;;27.58;35.05;96623.03;5000440;28;20082;-34
2021/09/20 02:46:10;;;;;;;1.83;1.60;;;;;;;27.58;34.92;96617.78;5009362;28;20036;-29
2021/09/20 02:48:35;;;;;;;2.05;1.70;;;;;;;27.57;34.90;96618.72;5011849;28;20048;-32
2021/09/20 02:51:01;;;;;;;1.77;1.60;;;;;;;27.57;35.01;96618.72;5010506;28;20021;-32
2021/09/20 02:53:26;;;;;;;1.85;1.70;;;;;;;27.57;34.91;96613.47;5015774;28;20140;-29
2021/09/20 02:55:52;;;;;;;1.85;1.70;;;;;;;27.56;34.98;96614.41;5011627;28;20040;-29
2021/09/20 02:58:17;;;;;;;2.17;1.90;;;;;;;27.56;35.21;96606.53;5006787;28;20724;-28
2021/09/20 03:00:43;;;;;;;2.10;1.80;;;;;;;27.56;35.13;96606.53;5010192;28;20496;-27
2021/09/20 03:03:08;;;;;;;1.90;1.70;;;;;;;27.55;34.96;96599.56;5013555;28;20338;-29
2021/09/20 03:05:35;;;;;;;2.00;1.70;;;;;;;27.56;35.05;96608.28;5015207;28;20045;-28
2021/09/20 03:08:00;;;;;;;2.13;1.77;;;;;;;27.55;34.97;96607.47;5012018;28;20579;-29
2021/09/20 03:10:26;;;;;;;2.03;1.83;;;;;;;27.54;34.83;96603.16;5008397;28;20044;-29
2021/09/20 03:12:51;;;;;;;2.50;2.10;;;;;;;27.55;34.99;96606.63;5014300;28;20032;-30
2021/09/20 03:15:17;;;;;;;1.70;1.50;;;;;;;27.53;34.78;96612.81;5011445;28;20570;-27
2021/09/20 03:17:42;;;;;;;2.38;1.88;;;;;;;27.53;34.87;96611.97;5004519;28;20029;-31
2021/09/20 03:20:08;;;;;;;2.58;1.80;;;;;;;27.54;34.96;96618.94;5003267;28;20068;-28
2021/09/20 03:22:33;;;;;;;2.70;1.70;;;;;;;27.54;35.03;96608.41;5006583;28;20120;-29
2021/09/20 03:24:59;;;;;;;2.30;1.65;;;;;;;27.54;34.95;96618.94;5003472;28;20068;-33
2021/09/20 03:27:24;;;;;;;1.75;1.65;;;;;;;27.54;35.04;96613.69;5004762;28;20040;-30
2021/09/20 03:29:49;;;;;;;2.88;1.90;;;;;;;27.53;35.13;96612.81;5013254;28;20026;-28
2021/09/20 03:32:15;;;;;;;2.28;1.65;;;;;;;27.55;34.93;96619.78;5013613;28;20036;-26
2021/09/20 03:34:40;;;;;;;1.63;1.52;;;;;;;27.54;35.01;96618.94;5011119;28;20507;-31
2021/09/20 03:37:06;;;;;;;1.65;1.55;;;;;;;27.53;35.07;96611.97;5011379;28;20527;-30
2021/09/20 03:39:32;;;;;;;2.25;1.80;;;;;;;27.53;35.03;96617.22;5007402;28;20025;-28
2021/09/20 03:42:00;;;;;;;1.67;1.52;;;;;;;27.53;35.05;96623.34;5008995;28;20025;-34
2021/09/20 03:44:26;;;;;;;1.88;1.63;;;;;;;27.52;35.03;96620.81;5013753;28;20030;-31
2021/09/20 03:46:51;;;;;;;2.65;1.90;;;;;;;27.53;35.09;96617.22;5004892;28;20076;-28
2021/09/20 03:49:16;;;;;;;2.00;1.85;;;;;;;27.53;35.09;96622.50;5006889;28;20434;-26
2021/09/20 03:51:42;;;;;;;2.47;1.60;;;;;;;27.53;35.03;96623.34;5011606;28;20056;-28
2021/09/20 03:54:07;;;;;;;1.80;1.70;;;;;;;27.53;35.03;96625.13;5010092;28;20652;-30
2021/09/20 03:56:33;;;;;;;2.00;1.80;;;;;;;27.53;34.91;96627.75;5006864;28;20703;-28
2021/09/20 03:58:58;;;;;;;1.77;1.67;;;;;;;27.53;34.98;96633.03;5008613;28;20484;-30
2021/09/20 04:01:23;;;;;;;2.20;1.58;;;;;;;27.52;35.14;96628.72;5004500;28;20052;-27
2021/09/20 04:03:49;;;;;;;1.85;1.60;;;;;;;27.52;35.05;96631.34;5009895;28;20044;-28
2021/09/20 04:06:14;;;;;;;1.50;1.40;;;;;;;27.51;35.14;96635.75;5005339;28;20564;-28
2021/09/20 04:08:40;;;;;;;2.00;1.80;;;;;;;27.51;35.07;96629.66;4991725;28;20029;-28
2021/09/20 04:11:05;;;;;;;2.92;1.80;;;;;;;27.51;35.21;96635.75;5011612;28;20444;-29
2021/09/20 04:13:31;;;;;;;1.83;1.50;;;;;;;27.51;35.06;96630.47;5012017;28;20037;-26
2021/09/20 04:15:56;;;;;;;1.70;1.60;;;;;;;27.48;35.12;96629.84;5008481;28;20032;-29
2021/09/20 04:18:22;;;;;;;3.22;1.90;;;;;;;27.50;35.10;96627.97;5008860;28;20025;-26
2021/09/20 04:20:49;;;;;;;3.35;1.88;;;;;;;27.51;35.15;96624.41;5006718;28;20025;-29
2021/09/20 04:23:15;;;;;;;2.45;1.52;;;;;;;27.52;35.28;96631.34;5009339;28;20064;-28
2021/09/20 04:25:40;;;;;;;3.28;1.83;;;;;;;27.51;35.25;96629.66;5009517;28;20033;-29
2021/09/20 04:28:06;;;;;;;3.83;1.77;;;;;;;27.51;35.36;96629.66;5008170;28;20832;-26
2021/09/20 04:30:31;;;;;;;2.83;1.38;;;;;;;27.51;35.16;96629.66;5008407;28;20033;-32
2021/09/20 04:32:57;;;;;;;3.55;1.63;;;;;;;27.49;35.17;96631.53;5010670;28;20013;-28
2021/09/20 04:35:22;;;;;;;1.92;1.52;;;;;;;27.50;35.13;96635.88;5010893;28;20178;-29
2021/09/20 04:37:48;;;;;;;3.47;1.75;;;;;;;27.50;35.20;96638.50;5014368;28;20034;-31
2021/09/20 04:40:13;;;;;;;3.40;1.58;;;;;;;27.51;35.25;96648.09;5012487;28;20106;-28
2021/09/20 04:42:38;;;;;;;1.63;1.50;;;;;;;27.50;35.26;96646.41;5011345;28;20037;-34
2021/09/20 04:45:04;;;;;;;2.42;1.90;;;;;;;27.49;35.21;96645.53;5010247;28;20040;-31
2021/09/20 04:47:30;;;;;;;2.55;1.80;;;;;;;27.49;35.32;96648.16;5006250;28;20037;-29
2021/09/20 04:49:55;;;;;;;1.83;1.70;;;;;;;27.49;35.25;96658.69;5006784;28;20040;-28
2021/09/20 04:52:21;;;;;;;2.40;1.80;;;;;;;27.49;35.28;96657.84;5009996;28;20033;-29
2021/09/20 04:54:46;;;;;;;3.35;1.98;;;;;;;27.48;35.30;96656.16;5012470;28;20029;-25
2021/09/20 04:57:11;;;;;;;1.77;1.67;;;;;;;27.49;35.11;96663.09;5006416;28;20033;-29
2021/09/20 04:59:37;;;;;;;2.17;1.83;;;;;;;27.48;35.17;96661.41;5010665;28;20091;-31
2021/09/20 05:02:02;;;;;;;1.88;1.70;;;;;;;27.48;35.28;96664.91;5007901;28;20048;-26
2021/09/20 05:04:28;;;;;;;4.85;2.20;;;;;;;27.48;35.20;96664.06;5015772;28;20025;-28
2021/09/20 05:06:53;;;;;;;1.90;1.80;;;;;;;27.48;35.21;96666.69;5008415;28;20176;-29
2021/09/20 05:09:18;;;;;;;4.78;2.03;;;;;;;27.47;35.20;96660.59;5007906;28;20045;-30
2021/09/20 05:11:44;;;;;;;1.85;1.73;;;;;;;27.48;35.27;96656.16;5010360;28;20246;-29
2021/09/20 05:14:13;;;;;;;2.03;1.67;;;;;;;27.47;35.24;96663.22;5013947;28;20941;-32
2021/09/20 05:16:38;;;;;;;2.33;1.98;;;;;;;27.46;35.28;96663.31;5010627;28;21031;-28
2021/09/20 05:19:04;;;;;;;1.98;1.77;;;;;;;27.46;35.28;96669.41;5008866;28;20041;-27
2021/09/20 05:21:29;;;;;;;2.75;1.80;;;;;;;27.47;35.34;96665.00;5008346;28;20029;-29
2021/09/20 05:23:55;;;;;;;2.13;1.92;;;;;;;27.47;35.30;96675.53;5007204;28;20034;-29
2021/09/20 05:26:20;;;;;;;2.08;1.88;;;;;;;27.47;35.29;96667.63;5011647;28;20084;-28
2021/09/20 05:28:46;;;;;;;2.55;1.70;;;;;;;27.48;35.24;96669.31;5011283;28;20511;-29
2021/09/20 05:31:11;;;;;;;2.20;2.00;;;;;;;27.47;35.40;96670.25;5005369;28;23003;-31
2021/09/20 05:33:37;;;;;;;1.90;1.80;;;;;;;27.48;35.29;96674.59;5009307;28;20037;-31
2021/09/20 05:36:03;;;;;;;2.75;2.03;;;;;;;27.46;35.24;96674.66;5011438;28;20037;-31
2021/09/20 05:38:28;;;;;;;2.72;1.95;;;;;;;27.45;35.29;96673.00;5022797;28;20610;-28
2021/09/20 05:40:54;;;;;;;3.35;2.03;;;;;;;27.45;35.32;96682.66;5007636;28;20029;-26
2021/09/20 05:43:19;;;;;;;2.83;2.03;;;;;;;27.46;35.36;96690.47;5006532;28;20030;-30
2021/09/20 05:45:44;;;;;;;3.10;1.80;;;;;;;27.45;35.08;96693.19;5006987;28;20730;-27
2021/09/20 05:48:10;;;;;;;3.70;2.00;;;;;;;27.46;35.36;96687.00;5012070;28;20037;-28
2021/09/20 05:50:35;;;;;;;2.55;1.98;;;;;;;27.46;35.32;96692.28;5012785;28;20021;-32
2021/09/20 05:53:01;;;;;;;2.22;1.83;;;;;;;27.44;35.44;96691.50;5010130;28;20631;-33
2021/09/20 05:55:26;;;;;;;2.83;2.20;;;;;;;27.44;35.37;96688.88;5006002;28;20578;-29
2021/09/20 05:57:52;;;;;;;3.90;1.88;;;;;;;27.44;35.28;96691.50;5010623;28;21003;-28
2021/09/20 06:00:17;;;;;;;2.00;1.90;;;;;;;27.44;35.41;96683.59;5002636;28;20037;-28
2021/09/20 06:02:43;;;;;;;2.95;2.13;;;;;;;27.44;35.44;96694.13;5011295;28;20029;-31
2021/09/20 06:05:09;;;;;;;4.15;2.40;;;;;;;27.44;35.28;96691.50;5008779;28;20084;-31
2021/09/20 06:07:35;;;;;;;2.67;1.95;;;;;;;27.43;35.37;96690.66;5009965;28;20025;-30
2021/09/20 06:10:00;;;;;;;2.78;2.30;;;;;;;27.43;35.35;96693.31;5012800;28;20049;-29
2021/09/20 06:12:26;;;;;;;2.67;2.45;;;;;;;27.42;35.34;96693.41;5003477;28;20057;-29
2021/09/20 06:14:51;;;;;;;2.50;2.25;;;;;;;27.42;35.45;96696.84;5007758;28;20025;-26
2021/09/20 06:17:16;;;;;;;2.65;2.00;;;;;;;27.42;35.42;96703.91;5012711;28;20139;-30
2021/09/20 06:19:42;;;;;;;4.03;1.90;;;;;;;27.42;35.43;96698.66;5012155;28;20041;-30
2021/09/20 06:22:08;;;;;;;2.75;2.17;;;;;;;27.42;35.43;96701.28;5009112;28;20086;-29
2021/09/20 06:24:33;;;;;;;5.57;2.42;;;;;;;27.42;35.35;96698.66;5009716;28;20033;-29
2021/09/20 06:26:58;;;;;;;3.88;2.30;;;;;;;27.43;35.50;96705.59;5009595;28;20067;-30
2021/09/20 06:29:24;;;;;;;4.38;2.17;;;;;;;27.42;35.42;96698.66;5005736;28;20033;-28
2021/09/20 06:31:49;;;;;;;4.80;2.20;;;;;;;27.42;35.38;96698.66;4998495;28;20181;-27
2021/09/20 06:34:15;;;;;;;3.53;2.40;;;;;;;27.42;35.53;96701.28;5006814;28;20030;-30
2021/09/20 06:36:40;;;;;;;6.90;2.83;;;;;;;27.41;35.45;96699.59;5010689;28;20299;-31
2021/09/20 06:39:09;;;;;;;6.97;3.53;;;;;;;27.39;35.48;96700.53;5003384;28;20025;-30
2021/09/20 06:41:34;;;;;;;7.00;3.42;;;;;;;27.39;35.53;96699.69;5001924;28;20025;-27
2021/09/20 06:44:00;;;;;;;7.90;3.83;;;;;;;27.38;35.63;96698.84;5005124;28;20034;-30
2021/09/20 06:46:26;;;;;;;13.18;3.67;;;;;;;27.37;35.67;96707.69;5005443;28;20024;-27
2021/09/20 06:48:52;;;;;;;12.70;4.35;;;;;;;27.36;35.71;96706.00;5008329;28;20049;-29
2021/09/20 06:51:17;;;;;;;9.50;4.43;;;;;;;27.35;35.65;96703.44;5005739;28;20103;-27
2021/09/20 06:53:43;;;;;;;11.52;4.00;;;;;;;27.33;35.56;96698.28;5003782;28;20037;-29
2021/09/20 06:56:08;;;;;;;12.35;3.63;;;;;;;27.34;35.62;96707.84;5004608;28;20036;-29
2021/09/20 06:58:35;;;;;;;10.63;3.70;;;;;;;27.33;35.62;96700.91;5009382;28;20561;-30
2021/09/20 07:01:00;;;;;;;8.73;4.32;;;;;;;27.33;35.40;96705.31;5007318;28;20032;-33
2021/09/20 07:03:25;;;;;;;10.68;4.15;;;;;;;27.34;35.32;96701.75;5008420;28;23275;-28
2021/09/20 07:05:51;;;;;;;7.30;4.20;;;;;;;27.33;35.23;96703.53;5007176;28;20064;-26
2021/09/20 07:08:16;;;;;;;9.60;4.10;;;;;;;27.33;35.04;96700.06;5005601;28;20048;-29
2021/09/20 07:10:42;;;;;;;8.25;4.22;;;;;;;27.31;34.98;96700.13;5007502;28;20436;-30
2021/09/20 07:13:09;;;;;;;7.32;4.30;;;;;;;27.30;34.98;96701.09;5007023;28;20021;-28
2021/09/20 07:15:36;;;;;;;6.60;3.95;;;;;;;27.30;34.94;96695.00;5011223;28;20033;-28
2021/09/20 07:18:01;;;;;;;7.32;4.20;;;;;;;27.30;34.87;96703.72;5005438;28;20025;-29
2021/09/20 07:20:27;;;;;;;7.93;4.28;;;;;;;27.29;34.90;96695.91;5003985;28;20228;-27
2021/09/20 07:22:52;;;;;;;6.80;4.43;;;;;;;27.29;34.87;96698.53;5008297;28;20060;-29
2021/09/20 07:25:17;;;;;;;6.82;4.88;;;;;;;27.29;34.83;96699.41;5010536;28;20041;-29
2021/09/20 07:27:44;;;;;;;7.65;4.60;;;;;;;27.29;34.70;96704.66;5007981;28;20502;-30
2021/09/20 07:30:15;;;;;;;7.50;4.50;;;;;;;27.27;34.82;96706.56;5008971;28;20555;-29
2021/09/20 07:32:41;;;;;;;;;;;;;;;27.27;34.71;96701.28;5009350;28;20025;-28
2021/09/20 07:35:07;;;;;;;5.55;3.97;;;;;;;27.26;34.79;96704.84;5006839;28;19968;-28
2021/09/20 07:37:32;;;;;;;9.20;4.25;;;;;;;27.24;34.62;96704.09;5006632;28;20041;-28
2021/09/20 07:39:58;;;;;;;11.13;3.90;;;;;;;27.24;34.72;96712.00;5006325;28;20411;-28
2021/09/20 07:42:23;;;;;;;5.03;4.10;;;;;;;27.23;34.63;96708.50;5005694;28;20045;-31
2021/09/20 07:44:49;;;;;;;7.13;4.00;;;;;;;27.19;34.69;96706.16;5007813;28;20040;-27
2021/09/20 07:47:14;;;;;;;6.63;4.15;;;;;;;27.22;34.71;96714.72;5007479;28;20565;-27
2021/09/20 07:49:40;;;;;;;5.57;4.15;;;;;;;27.22;34.74;96716.47;5006168;28;20052;-29
2021/09/20 07:52:05;;;;;;;6.40;4.00;;;;;;;27.21;34.73;96718.28;5007383;28;20176;-29
2021/09/20 07:54:31;;;;;;;9.07;3.95;;;;;;;27.22;34.79;96721.75;5008117;28;20026;-27
2021/09/20 07:56:56;;;;;;;5.57;3.72;;;;;;;27.22;34.63;96719.97;5004605;28;20032;-28
2021/09/20 07:59:21;;;;;;;7.72;3.53;;;;;;;27.22;34.59;96719.97;5004075;28;20059;-29
2021/09/20 08:01:49;;;;;;;8.38;4.13;;;;;;;27.24;34.68;96722.53;5008397;28;20415;-29
2021/09/20 08:04:14;;;;;;;12.68;4.75;;;;;;;27.23;34.74;96724.28;5006098;28;20628;-27
2021/09/20 08:06:40;;;;;;;5.47;3.92;;;;;;;27.25;34.78;96726.84;5005967;28;20040;-28
2021/09/20 08:09:05;;;;;;;7.30;3.75;;;;;;;27.25;34.71;96725.06;5005419;28;20164;-27
2021/09/20 08:11:31;;;;;;;6.00;3.40;;;;;;;27.26;34.85;96729.38;5007365;28;20067;-30
2021/09/20 08:13:57;;;;;;;5.07;3.72;;;;;;;27.25;34.87;96726.84;5007043;28;20029;-30
2021/09/20 08:16:22;;;;;;;4.90;3.22;;;;;;;27.25;34.83;96730.31;5011554;28;20313;-26
2021/09/20 08:18:47;;;;;;;8.13;3.97;;;;;;;27.26;34.78;96729.38;5006296;28;20021;-26
2021/09/20 08:21:13;;;;;;;4.72;3.53;;;;;;;27.26;34.70;96729.38;5006733;28;20036;-28
2021/09/20 08:23:39;;;;;;;4.88;3.75;;;;;;;27.26;34.78;96726.75;5008840;28;20029;-34
2021/09/20 08:26:05;;;;;;;7.18;4.70;;;;;;;27.25;34.73;96732.09;5008188;28;20030;-27
2021/09/20 08:28:31;;;;;;;13.57;5.60;;;;;;;27.22;34.38;96740.16;5013475;28;20120;-31
2021/09/20 08:30:57;;;;;;;11.02;6.15;;;;;;;27.15;34.25;96744.13;5011610;28;20029;-30
2021/09/20 08:33:22;;;;;;;17.02;6.68;;;;;;;27.07;34.22;96747.19;5011978;28;20024;-29
2021/09/20 08:35:48;;;;;;;16.30;7.00;;;;;;;26.97;34.35;96741.63;5010163;28;20092;-29
2021/09/20 08:38:13;;;;;;;10.73;6.57;;;;;;;26.88;34.24;96741.19;5007196;28;20025;-31
2021/09/20 08:40:38;;;;;;;10.80;6.65;;;;;;;26.79;34.30;96744.38;5008140;28;20084;-29
2021/09/20 08:43:04;;;;;;;14.68;6.03;;;;;;;26.70;34.47;96750.16;5004993;28;20083;-28
2021/09/20 08:45:29;;;;;;;11.10;6.45;;;;;;;26.60;34.68;96750.69;5004591;28;23324;-31
2021/09/20 08:47:56;;;;;;;10.15;6.60;;;;;;;26.52;34.72;96749.44;5007028;28;20028;-31
2021/09/20 08:50:48;;;;;;;11.50;6.65;;;;;;;26.44;34.86;96749.88;4993320;28;20056;-32
2021/09/20 08:53:13;;;;;;;7.03;4.88;;;;;;;26.40;35.04;96756.22;5003802;28;20037;-28
2021/09/20 08:55:39;;;;;;;7.57;4.30;;;;;;;26.38;35.09;96761.56;5004172;28;20107;-28
2021/09/20 08:58:04;;;;;;;5.88;3.50;;;;;;;26.40;35.19;96764.09;5007414;28;20041;-32
2021/09/20 09:00:30;;;;;;;5.53;3.83;;;;;;;26.44;35.38;96760.38;5007717;28;20037;-30
2021/09/20 09:02:55;;;;;;;9.48;3.70;;;;;;;26.48;35.43;96761.91;5006365;28;20064;-34
2021/09/20 09:05:26;;;;;;;13.52;3.53;;;;;;;26.53;35.48;96766.88;5009447;28;20025;-31
2021/09/20 09:07:54;;;;;;;10.93;3.88;;;;;;;26.56;35.54;96764.94;5012384;28;20748;-30
2021/09/20 09:10:21;;;;;;;8.23;3.30;;;;;;;26.61;35.50;96765.53;5011840;28;20067;-30
2021/09/20 09:12:47;;;;;;;10.07;3.65;;;;;;;26.65;35.45;96762.72;5008746;28;20539;-28
2021/09/20 09:15:15;;;;;;;7.47;3.40;;;;;;;26.70;35.61;96765.94;4993707;28;20048;-28
2021/09/20 09:17:43;;;;;;;12.75;3.67;;;;;;;26.74;35.56;96762.19;5012799;28;20037;-30
2021/09/20 09:20:10;;;;;;;9.93;3.67;;;;;;;26.77;35.73;96769.88;5014988;28;20067;-28
2021/09/20 09:22:40;;;;;;;6.55;3.65;;;;;;;26.80;35.75;96769.72;5013891;28;20041;-32
2021/09/20 09:25:07;;;;;;;7.00;3.70;;;;;;;26.84;35.80;96765.97;5013902;28;20032;-30
2021/09/20 09:27:35;;;;;;;12.23;4.38;;;;;;;26.87;36.23;96773.69;5013620;28;20029;-28
2021/09/20 09:30:12;;;;;;;12.10;4.03;;;;;;;26.92;36.33;96780.47;5011127;28;20036;-28
2021/09/20 09:32:38;;;;;;;11.95;3.60;;;;;;;26.94;36.40;96779.47;5011753;28;20041;-31
2021/09/20 09:35:06;;;;;;;12.88;4.05;;;;;;;26.97;36.59;96783.72;5013143;28;20079;-27
2021/09/20 09:37:32;;;;;;;14.80;4.38;;;;;;;27.00;36.58;96783.50;5015182;28;20040;-28
2021/09/20 09:40:05;;;;;;;7.35;3.92;;;;;;;27.02;36.79;96781.66;5012676;28;20020;-28
2021/09/20 09:42:31;;;;;;;10.52;3.85;;;;;;;27.03;36.88;96780.72;5013627;28;21031;-29
2021/09/20 09:44:57;;;;;;;8.45;3.60;;;;;;;27.04;36.97;96779.78;5011918;28;20030;-27
2021/09/20 09:47:31;;;;;;;7.30;4.30;;;;;;;27.07;37.09;96784.00;5014230;28;20075;-32
2021/09/20 09:50:17;;;;;;;6.65;3.65;;;;;;;27.07;37.22;96779.59;5013280;28;20397;-31
2021/09/20 09:52:42;;;;;;;12.30;3.90;;;;;;;27.09;37.41;96783.00;5014432;28;20044;-30
2021/09/20 09:55:09;;;;;;;9.70;4.05;;;;;;;27.12;37.36;96787.22;5015979;28;20372;-28
2021/09/20 09:57:34;;;;;;;4.70;3.33;;;;;;;27.11;37.49;96782.88;5012504;28;20033;-28
2021/09/20 10:00:03;;;;;;;6.43;3.55;;;;;;;27.13;37.48;96787.16;5007142;28;20043;-26
2021/09/20 10:02:33;;;;;;;8.70;3.90;;;;;;;27.15;37.54;96787.03;5010904;28;20034;-28
2021/09/20 10:05:06;;;;;;;6.30;3.60;;;;;;;27.17;37.59;96787.81;5012735;28;20022;-31
2021/09/20 10:07:39;;;;;;;8.77;3.42;;;;;;;27.18;37.62;96786.84;5013216;28;20033;-27
2021/09/20 10:10:29;;;;;;;8.50;3.38;;;;;;;27.19;37.76;96788.53;5010776;28;20465;-28
2021/09/20 10:12:57;;;;;;;5.80;3.25;;;;;;;27.20;37.69;96789.41;5009724;28;20052;-30
2021/09/20 10:15:23;;;;;;;5.47;3.63;;;;;;;27.21;37.74;96785.81;5016195;28;20028;-29
2021/09/20 10:17:49;;;;;;;8.60;3.60;;;;;;;27.22;37.78;96785.75;5012569;28;20044;-28
2021/09/20 10:20:19;;;;;;;4.88;3.42;;;;;;;27.23;37.88;96784.81;5022811;28;20037;-31
2021/09/20 10:22:45;;;;;;;6.55;3.47;;;;;;;27.23;37.74;96782.16;5013233;28;20029;-29
2021/09/20 10:25:11;;;;;;;4.97;3.33;;;;;;;27.25;37.92;96782.09;5030358;28;20060;-30
2021/09/20 10:27:37;;;;;;;5.50;3.13;;;;;;;27.26;37.92;96783.75;5016464;28;20048;-26
2021/09/20 10:30:14;;;;;;;5.72;3.75;;;;;;;27.27;37.78;96790.75;5015857;28;20116;-31
2021/09/20 10:32:42;;;;;;;6.20;3.90;;;;;;;27.28;37.80;96787.16;5020533;28;20128;-32
2021/09/20 10:35:25;;;;;;;4.07;3.40;;;;;;;27.29;37.79;96788.84;5015312;28;20112;-31
2021/09/20 10:38:21;;;;;;;4.68;3.20;;;;;;;27.30;39.31;96780.00;5016672;28;20144;-31
2021/09/20 10:41:17;;;;;;;6.95;3.47;;;;;;;27.29;41.42;96780.09;5025315;28;20029;-32
2021/09/20 10:43:47;;;;;;;5.53;3.20;;;;;;;27.26;41.79;96784.63;5032037;28;20032;-27
2021/09/20 10:46:20;;;;;;;4.20;3.35;;;;;;;27.29;41.98;96788.00;5035736;28;21504;-30
2021/09/20 10:48:47;;;;;;;5.75;3.03;;;;;;;27.32;42.17;96783.41;5023847;28;20056;-29
2021/09/20 10:51:12;;;;;;;5.32;3.33;;;;;;;27.39;41.96;96784.72;5032257;28;20072;-30
2021/09/20 10:53:38;;;;;;;4.03;3.05;;;;;;;27.47;42.09;96781.66;5019049;28;20440;-27
2021/09/20 10:56:03;;;;;;;4.47;3.30;;;;;;;27.57;41.78;96781.94;5030252;28;20132;-28
2021/09/20 10:58:34;;;;;;;7.30;3.20;;;;;;;27.69;41.74;96777.72;5028423;28;20749;-30
2021/09/20 11:01:11;;;;;;;5.95;2.80;;;;;;;27.81;41.29;96781.41;5030142;28;20032;-31
2021/09/20 11:03:43;;;;;;;5.03;3.03;;;;;;;27.92;41.32;96776.31;5027164;28;20670;-28
2021/09/20 11:06:26;;;;;;;5.03;3.00;;;;;;;28.06;41.38;96782.50;5027532;28;20105;-32
2021/09/20 11:08:58;;;;;;;6.10;3.33;;;;;;;28.16;40.80;96781.00;5031232;28;20063;-29
2021/09/20 11:11:42;;;;;;;5.43;3.03;;;;;;;28.28;40.84;96781.19;5026466;28;20028;-26
2021/09/20 11:14:12;;;;;;;8.63;3.97;;;;;;;28.38;40.59;96771.72;5029872;28;20020;-28
2021/09/20 11:16:59;;;;;;;6.53;3.60;;;;;;;28.49;40.64;96778.13;5025627;28;20024;-31
2021/09/20 11:19:27;;;;;;;6.53;3.22;;;;;;;28.60;40.40;96777.44;5027821;28;20025;-28
2021/09/20 11:24:46;;;;;;;5.07;3.28;;;;;;;28.79;40.66;96782.31;5032509;28;20025;-29
2021/09/20 11:27:32;;;;;;;8.60;3.88;;;;;;;28.86;40.30;96775.69;5031676;28;20051;-29
2021/09/20 11:30:11;;;;;;;10.38;3.67;;;;;;;28.92;39.64;96780.59;5033121;28;20108;-27
2021/09/20 11:33:01;;;;;;;7.25;3.30;;;;;;;28.97;39.85;96776.81;5032795;28;20025;-29